sensor_id;sensor_type;location;lat;lon;timestamp;P1;durP1;ratioP1;P2;durP2;ratioP2
78004;SDS011;67209;51.698;-0.292;2023-04-16T00:00:59;32.80;;;16.85;;
78004;SDS011;67209;51.698;-0.292;2023-04-16T00:03:25;33.15;;;17.05;;
78004;SDS011;67209;51.698;-0.292;2023-04-16T00:05:51;34.45;;;19.33;;
78004;SDS011;67209;51.698;-0.292;2023-04-16T00:08:20;38.95;;;18.73;;
78004;SDS011;67209;51.698;-0.292;2023-04-16T00:10:48;37.15;;;19.00;;
78004;SDS011;67209;51.698;-0.292;2023-04-16T00:13:14;42.22;;;18.48;;
78004;SDS011;67209;51.698;-0.292;2023-04-16T00:15:40;42.03;;;19.35;;
78004;SDS011;67209;51.698;-0.292;2023-04-16T00:18:06;41.58;;;19.52;;
78004;SDS011;67209;51.698;-0.292;2023-04-16T00:20:32;31.58;;;17.42;;
78004;SDS011;67209;51.698;-0.292;2023-04-16T00:22:58;31.98;;;17.15;;
78004;SDS011;67209;51.698;-0.292;2023-04-16T00:25:24;38.95;;;17.52;;
78004;SDS011;67209;51.698;-0.292;2023-04-16T00:27:50;37.05;;;17.98;;
78004;SDS011;67209;51.698;-0.292;2023-04-16T00:30:16;37.45;;;16.17;;
78004;SDS011;67209;51.698;-0.292;2023-04-16T00:32:42;29.05;;;15.18;;
78004;SDS011;67209;51.698;-0.292;2023-04-16T00:35:08;29.25;;;14.27;;
78004;SDS011;67209;51.698;-0.292;2023-04-16T00:37:34;27.42;;;14.60;;
78004;SDS011;67209;51.698;-0.292;2023-04-16T00:40:00;27.38;;;13.45;;
78004;SDS011;67209;51.698;-0.292;2023-04-16T00:42:26;26.10;;;13.77;;
78004;SDS011;67209;51.698;-0.292;2023-04-16T00:44:52;30.33;;;13.80;;
78004;SDS011;67209;51.698;-0.292;2023-04-16T00:47:18;28.10;;;14.05;;
78004;SDS011;67209;51.698;-0.292;2023-04-16T00:49:44;23.73;;;13.40;;
78004;SDS011;67209;51.698;-0.292;2023-04-16T00:52:10;25.13;;;14.45;;
78004;SDS011;67209;51.698;-0.292;2023-04-16T00:54:36;29.73;;;15.07;;
78004;SDS011;67209;51.698;-0.292;2023-04-16T00:57:03;30.67;;;15.38;;
78004;SDS011;67209;51.698;-0.292;2023-04-16T00:59:29;31.58;;;17.13;;
78004;SDS011;67209;51.698;-0.292;2023-04-16T01:01:55;32.50;;;16.90;;
78004;SDS011;67209;51.698;-0.292;2023-04-16T01:04:21;35.25;;;18.23;;
78004;SDS011;67209;51.698;-0.292;2023-04-16T01:06:47;33.30;;;17.35;;
78004;SDS011;67209;51.698;-0.292;2023-04-16T01:09:13;36.17;;;18.63;;
78004;SDS011;67209;51.698;-0.292;2023-04-16T01:11:39;36.10;;;17.17;;
78004;SDS011;67209;51.698;-0.292;2023-04-16T01:14:05;35.75;;;17.83;;
78004;SDS011;67209;51.698;-0.292;2023-04-16T01:16:31;32.80;;;17.20;;
78004;SDS011;67209;51.698;-0.292;2023-04-16T01:18:57;31.75;;;15.52;;
78004;SDS011;67209;51.698;-0.292;2023-04-16T01:21:23;29.63;;;14.25;;
78004;SDS011;67209;51.698;-0.292;2023-04-16T01:23:50;23.60;;;12.68;;
78004;SDS011;67209;51.698;-0.292;2023-04-16T01:26:16;24.90;;;12.88;;
78004;SDS011;67209;51.698;-0.292;2023-04-16T01:28:42;26.48;;;12.90;;
78004;SDS011;67209;51.698;-0.292;2023-04-16T01:31:08;23.92;;;11.30;;
78004;SDS011;67209;51.698;-0.292;2023-04-16T01:33:34;18.65;;;10.60;;
78004;SDS011;67209;51.698;-0.292;2023-04-16T01:36:00;23.77;;;11.50;;
78004;SDS011;67209;51.698;-0.292;2023-04-16T01:38:26;22.25;;;11.35;;
78004;SDS011;67209;51.698;-0.292;2023-04-16T01:40:56;21.88;;;11.77;;
78004;SDS011;67209;51.698;-0.292;2023-04-16T01:43:23;23.90;;;12.73;;
78004;SDS011;67209;51.698;-0.292;2023-04-16T01:45:49;23.23;;;11.23;;
78004;SDS011;67209;51.698;-0.292;2023-04-16T01:48:15;25.98;;;12.68;;
78004;SDS011;67209;51.698;-0.292;2023-04-16T01:50:41;25.88;;;12.23;;
78004;SDS011;67209;51.698;-0.292;2023-04-16T01:53:07;25.48;;;13.23;;
78004;SDS011;67209;51.698;-0.292;2023-04-16T01:55:33;22.55;;;12.85;;
78004;SDS011;67209;51.698;-0.292;2023-04-16T01:57:59;24.33;;;12.93;;
78004;SDS011;67209;51.698;-0.292;2023-04-16T02:00:25;24.13;;;12.23;;
78004;SDS011;67209;51.698;-0.292;2023-04-16T02:02:51;20.33;;;11.15;;
78004;SDS011;67209;51.698;-0.292;2023-04-16T02:05:18;24.75;;;11.60;;
78004;SDS011;67209;51.698;-0.292;2023-04-16T02:07:44;19.92;;;11.00;;
78004;SDS011;67209;51.698;-0.292;2023-04-16T02:10:10;24.77;;;12.27;;
78004;SDS011;67209;51.698;-0.292;2023-04-16T02:12:36;23.25;;;10.77;;
78004;SDS011;67209;51.698;-0.292;2023-04-16T02:15:02;20.75;;;11.15;;
78004;SDS011;67209;51.698;-0.292;2023-04-16T02:17:28;22.05;;;10.65;;
78004;SDS011;67209;51.698;-0.292;2023-04-16T02:19:54;20.20;;;10.00;;
78004;SDS011;67209;51.698;-0.292;2023-04-16T02:22:20;18.13;;;9.32;;
78004;SDS011;67209;51.698;-0.292;2023-04-16T02:24:46;17.92;;;9.73;;
78004;SDS011;67209;51.698;-0.292;2023-04-16T02:27:14;18.65;;;9.32;;
78004;SDS011;67209;51.698;-0.292;2023-04-16T02:29:40;19.70;;;9.65;;
78004;SDS011;67209;51.698;-0.292;2023-04-16T02:32:06;17.92;;;9.15;;
78004;SDS011;67209;51.698;-0.292;2023-04-16T02:34:32;18.40;;;8.48;;
78004;SDS011;67209;51.698;-0.292;2023-04-16T02:36:59;20.35;;;8.85;;
78004;SDS011;67209;51.698;-0.292;2023-04-16T02:39:25;17.95;;;8.60;;
78004;SDS011;67209;51.698;-0.292;2023-04-16T02:41:51;16.00;;;8.38;;
78004;SDS011;67209;51.698;-0.292;2023-04-16T02:44:18;16.48;;;8.52;;
78004;SDS011;67209;51.698;-0.292;2023-04-16T02:46:44;16.10;;;8.40;;
78004;SDS011;67209;51.698;-0.292;2023-04-16T02:49:10;17.73;;;8.15;;
78004;SDS011;67209;51.698;-0.292;2023-04-16T02:51:36;15.40;;;8.00;;
78004;SDS011;67209;51.698;-0.292;2023-04-16T02:54:02;18.55;;;8.68;;
78004;SDS011;67209;51.698;-0.292;2023-04-16T02:56:28;20.42;;;9.57;;
78004;SDS011;67209;51.698;-0.292;2023-04-16T02:58:54;18.15;;;9.43;;
78004;SDS011;67209;51.698;-0.292;2023-04-16T03:01:20;20.00;;;11.73;;
78004;SDS011;67209;51.698;-0.292;2023-04-16T03:03:46;20.33;;;11.57;;
78004;SDS011;67209;51.698;-0.292;2023-04-16T03:06:12;21.33;;;11.18;;
78004;SDS011;67209;51.698;-0.292;2023-04-16T03:08:38;22.40;;;11.13;;
78004;SDS011;67209;51.698;-0.292;2023-04-16T03:11:04;20.20;;;11.93;;
78004;SDS011;67209;51.698;-0.292;2023-04-16T03:13:32;23.10;;;11.50;;
78004;SDS011;67209;51.698;-0.292;2023-04-16T03:15:59;23.73;;;11.65;;
78004;SDS011;67209;51.698;-0.292;2023-04-16T03:18:25;22.98;;;11.35;;
78004;SDS011;67209;51.698;-0.292;2023-04-16T03:20:51;20.27;;;10.25;;
78004;SDS011;67209;51.698;-0.292;2023-04-16T03:23:17;20.92;;;11.15;;
78004;SDS011;67209;51.698;-0.292;2023-04-16T03:25:43;26.25;;;12.90;;
78004;SDS011;67209;51.698;-0.292;2023-04-16T03:28:11;22.40;;;12.15;;
78004;SDS011;67209;51.698;-0.292;2023-04-16T03:30:38;25.70;;;12.20;;
78004;SDS011;67209;51.698;-0.292;2023-04-16T03:33:04;22.02;;;12.98;;
78004;SDS011;67209;51.698;-0.292;2023-04-16T03:35:30;22.63;;;11.93;;
78004;SDS011;67209;51.698;-0.292;2023-04-16T03:37:57;18.77;;;11.38;;
78004;SDS011;67209;51.698;-0.292;2023-04-16T03:40:23;19.88;;;10.90;;
78004;SDS011;67209;51.698;-0.292;2023-04-16T03:42:49;20.60;;;11.27;;
78004;SDS011;67209;51.698;-0.292;2023-04-16T03:45:15;20.08;;;11.00;;
78004;SDS011;67209;51.698;-0.292;2023-04-16T03:47:41;25.60;;;11.20;;
78004;SDS011;67209;51.698;-0.292;2023-04-16T03:50:07;22.17;;;11.95;;
78004;SDS011;67209;51.698;-0.292;2023-04-16T03:52:34;22.40;;;11.70;;
78004;SDS011;67209;51.698;-0.292;2023-04-16T03:55:00;23.88;;;10.93;;
78004;SDS011;67209;51.698;-0.292;2023-04-16T03:57:27;21.45;;;11.63;;
78004;SDS011;67209;51.698;-0.292;2023-04-16T03:59:53;25.88;;;11.90;;
78004;SDS011;67209;51.698;-0.292;2023-04-16T04:02:19;20.13;;;11.23;;
78004;SDS011;67209;51.698;-0.292;2023-04-16T04:04:45;22.70;;;11.68;;
78004;SDS011;67209;51.698;-0.292;2023-04-16T04:07:11;21.48;;;10.23;;
78004;SDS011;67209;51.698;-0.292;2023-04-16T04:09:37;23.02;;;12.13;;
78004;SDS011;67209;51.698;-0.292;2023-04-16T04:12:03;24.30;;;10.38;;
78004;SDS011;67209;51.698;-0.292;2023-04-16T04:14:29;24.60;;;12.25;;
78004;SDS011;67209;51.698;-0.292;2023-04-16T04:16:55;23.27;;;11.75;;
78004;SDS011;67209;51.698;-0.292;2023-04-16T04:19:21;23.50;;;11.52;;
78004;SDS011;67209;51.698;-0.292;2023-04-16T04:21:47;20.92;;;12.10;;
78004;SDS011;67209;51.698;-0.292;2023-04-16T04:24:14;22.48;;;12.38;;
78004;SDS011;67209;51.698;-0.292;2023-04-16T04:26:39;23.25;;;12.05;;
78004;SDS011;67209;51.698;-0.292;2023-04-16T04:29:06;21.95;;;11.60;;
78004;SDS011;67209;51.698;-0.292;2023-04-16T04:31:32;24.48;;;12.10;;
78004;SDS011;67209;51.698;-0.292;2023-04-16T04:33:58;19.85;;;11.20;;
78004;SDS011;67209;51.698;-0.292;2023-04-16T04:36:24;23.35;;;11.10;;
78004;SDS011;67209;51.698;-0.292;2023-04-16T04:38:51;21.05;;;11.80;;
78004;SDS011;67209;51.698;-0.292;2023-04-16T04:41:17;22.75;;;11.90;;
78004;SDS011;67209;51.698;-0.292;2023-04-16T04:43:43;23.80;;;11.65;;
78004;SDS011;67209;51.698;-0.292;2023-04-16T04:46:09;25.10;;;13.38;;
78004;SDS011;67209;51.698;-0.292;2023-04-16T04:48:35;25.50;;;12.43;;
78004;SDS011;67209;51.698;-0.292;2023-04-16T04:51:01;25.20;;;13.52;;
78004;SDS011;67209;51.698;-0.292;2023-04-16T04:53:28;28.23;;;13.73;;
78004;SDS011;67209;51.698;-0.292;2023-04-16T04:55:54;27.90;;;14.10;;
78004;SDS011;67209;51.698;-0.292;2023-04-16T04:58:20;32.90;;;14.38;;
78004;SDS011;67209;51.698;-0.292;2023-04-16T05:00:46;26.92;;;14.23;;
78004;SDS011;67209;51.698;-0.292;2023-04-16T05:03:17;26.20;;;13.60;;
78004;SDS011;67209;51.698;-0.292;2023-04-16T05:05:43;33.78;;;15.75;;
78004;SDS011;67209;51.698;-0.292;2023-04-16T05:08:10;31.10;;;15.23;;
78004;SDS011;67209;51.698;-0.292;2023-04-16T05:10:35;27.58;;;13.45;;
78004;SDS011;67209;51.698;-0.292;2023-04-16T05:13:02;27.13;;;15.15;;
78004;SDS011;67209;51.698;-0.292;2023-04-16T05:15:28;29.13;;;15.00;;
78004;SDS011;67209;51.698;-0.292;2023-04-16T05:17:54;29.20;;;14.48;;
78004;SDS011;67209;51.698;-0.292;2023-04-16T05:20:21;29.02;;;15.38;;
78004;SDS011;67209;51.698;-0.292;2023-04-16T05:22:48;27.25;;;13.25;;
78004;SDS011;67209;51.698;-0.292;2023-04-16T05:25:15;26.15;;;14.05;;
78004;SDS011;67209;51.698;-0.292;2023-04-16T05:27:41;28.70;;;14.25;;
78004;SDS011;67209;51.698;-0.292;2023-04-16T05:30:07;25.48;;;12.52;;
78004;SDS011;67209;51.698;-0.292;2023-04-16T05:32:33;25.67;;;14.05;;
78004;SDS011;67209;51.698;-0.292;2023-04-16T05:34:59;29.80;;;14.73;;
78004;SDS011;67209;51.698;-0.292;2023-04-16T05:37:25;26.45;;;13.98;;
78004;SDS011;67209;51.698;-0.292;2023-04-16T05:39:51;28.17;;;15.18;;
78004;SDS011;67209;51.698;-0.292;2023-04-16T05:42:17;26.90;;;14.00;;
78004;SDS011;67209;51.698;-0.292;2023-04-16T05:44:43;25.77;;;14.68;;
78004;SDS011;67209;51.698;-0.292;2023-04-16T05:47:10;26.42;;;13.35;;
78004;SDS011;67209;51.698;-0.292;2023-04-16T05:49:36;25.95;;;13.20;;
78004;SDS011;67209;51.698;-0.292;2023-04-16T05:52:05;24.73;;;14.10;;
78004;SDS011;67209;51.698;-0.292;2023-04-16T05:54:31;26.40;;;13.13;;
78004;SDS011;67209;51.698;-0.292;2023-04-16T05:56:57;26.58;;;13.68;;
78004;SDS011;67209;51.698;-0.292;2023-04-16T05:59:23;25.98;;;13.43;;
78004;SDS011;67209;51.698;-0.292;2023-04-16T06:01:49;23.00;;;13.50;;
78004;SDS011;67209;51.698;-0.292;2023-04-16T06:04:15;24.77;;;13.13;;
78004;SDS011;67209;51.698;-0.292;2023-04-16T06:06:41;24.80;;;13.25;;
78004;SDS011;67209;51.698;-0.292;2023-04-16T06:09:07;24.50;;;12.65;;
78004;SDS011;67209;51.698;-0.292;2023-04-16T06:11:33;25.40;;;12.75;;
78004;SDS011;67209;51.698;-0.292;2023-04-16T06:13:59;24.52;;;12.70;;
78004;SDS011;67209;51.698;-0.292;2023-04-16T06:16:25;26.52;;;12.65;;
78004;SDS011;67209;51.698;-0.292;2023-04-16T06:18:51;25.35;;;12.77;;
78004;SDS011;67209;51.698;-0.292;2023-04-16T06:21:17;21.58;;;11.85;;
78004;SDS011;67209;51.698;-0.292;2023-04-16T06:23:43;25.88;;;13.40;;
78004;SDS011;67209;51.698;-0.292;2023-04-16T06:26:09;21.52;;;12.27;;
78004;SDS011;67209;51.698;-0.292;2023-04-16T06:28:35;23.38;;;12.60;;
78004;SDS011;67209;51.698;-0.292;2023-04-16T06:31:01;22.63;;;12.45;;
78004;SDS011;67209;51.698;-0.292;2023-04-16T06:33:27;25.08;;;12.30;;
78004;SDS011;67209;51.698;-0.292;2023-04-16T06:35:53;21.63;;;11.50;;
78004;SDS011;67209;51.698;-0.292;2023-04-16T06:38:20;23.55;;;12.45;;
78004;SDS011;67209;51.698;-0.292;2023-04-16T06:40:47;22.40;;;11.48;;
78004;SDS011;67209;51.698;-0.292;2023-04-16T06:43:13;21.88;;;11.75;;
78004;SDS011;67209;51.698;-0.292;2023-04-16T06:45:39;19.88;;;11.35;;
78004;SDS011;67209;51.698;-0.292;2023-04-16T06:48:05;19.60;;;11.27;;
78004;SDS011;67209;51.698;-0.292;2023-04-16T06:50:31;21.10;;;12.75;;
78004;SDS011;67209;51.698;-0.292;2023-04-16T06:52:57;24.05;;;12.77;;
78004;SDS011;67209;51.698;-0.292;2023-04-16T06:55:23;24.95;;;12.60;;
78004;SDS011;67209;51.698;-0.292;2023-04-16T06:57:49;27.98;;;12.85;;
78004;SDS011;67209;51.698;-0.292;2023-04-16T07:00:15;23.23;;;12.85;;
78004;SDS011;67209;51.698;-0.292;2023-04-16T07:02:42;42.53;;;13.35;;
78004;SDS011;67209;51.698;-0.292;2023-04-16T07:05:09;24.05;;;13.38;;
78004;SDS011;67209;51.698;-0.292;2023-04-16T07:07:35;23.35;;;11.68;;
78004;SDS011;67209;51.698;-0.292;2023-04-16T07:10:01;23.83;;;12.52;;
78004;SDS011;67209;51.698;-0.292;2023-04-16T07:12:27;24.48;;;12.40;;
78004;SDS011;67209;51.698;-0.292;2023-04-16T07:14:53;26.58;;;13.68;;
78004;SDS011;67209;51.698;-0.292;2023-04-16T07:17:20;25.77;;;12.48;;
78004;SDS011;67209;51.698;-0.292;2023-04-16T07:19:46;21.58;;;12.57;;
78004;SDS011;67209;51.698;-0.292;2023-04-16T07:22:12;26.23;;;13.02;;
78004;SDS011;67209;51.698;-0.292;2023-04-16T07:24:39;27.33;;;13.13;;
78004;SDS011;67209;51.698;-0.292;2023-04-16T07:27:05;26.45;;;12.93;;
78004;SDS011;67209;51.698;-0.292;2023-04-16T07:29:31;25.05;;;13.38;;
78004;SDS011;67209;51.698;-0.292;2023-04-16T07:31:57;24.80;;;13.20;;
78004;SDS011;67209;51.698;-0.292;2023-04-16T07:34:23;24.38;;;13.63;;
78004;SDS011;67209;51.698;-0.292;2023-04-16T07:36:49;23.80;;;13.13;;
78004;SDS011;67209;51.698;-0.292;2023-04-16T07:39:15;24.13;;;12.90;;
78004;SDS011;67209;51.698;-0.292;2023-04-16T07:41:42;26.17;;;12.98;;
78004;SDS011;67209;51.698;-0.292;2023-04-16T07:44:08;25.55;;;12.95;;
78004;SDS011;67209;51.698;-0.292;2023-04-16T07:46:34;22.25;;;13.15;;
78004;SDS011;67209;51.698;-0.292;2023-04-16T07:49:00;22.73;;;13.15;;
78004;SDS011;67209;51.698;-0.292;2023-04-16T07:51:26;22.88;;;12.50;;
78004;SDS011;67209;51.698;-0.292;2023-04-16T07:53:52;20.75;;;12.45;;
78004;SDS011;67209;51.698;-0.292;2023-04-16T07:56:18;20.73;;;11.60;;
78004;SDS011;67209;51.698;-0.292;2023-04-16T07:58:44;20.35;;;11.02;;
78004;SDS011;67209;51.698;-0.292;2023-04-16T08:01:10;20.38;;;11.45;;
78004;SDS011;67209;51.698;-0.292;2023-04-16T08:03:36;17.40;;;10.60;;
78004;SDS011;67209;51.698;-0.292;2023-04-16T08:06:02;19.85;;;9.95;;
78004;SDS011;67209;51.698;-0.292;2023-04-16T08:08:28;18.38;;;10.13;;
78004;SDS011;67209;51.698;-0.292;2023-04-16T08:10:55;16.10;;;9.93;;
78004;SDS011;67209;51.698;-0.292;2023-04-16T08:13:22;16.45;;;9.93;;
78004;SDS011;67209;51.698;-0.292;2023-04-16T08:15:48;18.85;;;9.73;;
78004;SDS011;67209;51.698;-0.292;2023-04-16T08:18:14;14.88;;;9.27;;
78004;SDS011;67209;51.698;-0.292;2023-04-16T08:20:40;16.45;;;9.70;;
78004;SDS011;67209;51.698;-0.292;2023-04-16T08:23:06;15.23;;;9.60;;
78004;SDS011;67209;51.698;-0.292;2023-04-16T08:25:32;14.65;;;7.63;;
78004;SDS011;67209;51.698;-0.292;2023-04-16T08:27:58;12.30;;;7.40;;
78004;SDS011;67209;51.698;-0.292;2023-04-16T08:30:25;13.10;;;7.93;;
78004;SDS011;67209;51.698;-0.292;2023-04-16T08:32:51;12.15;;;7.78;;
78004;SDS011;67209;51.698;-0.292;2023-04-16T08:35:17;16.50;;;8.82;;
78004;SDS011;67209;51.698;-0.292;2023-04-16T08:37:43;14.63;;;8.23;;
78004;SDS011;67209;51.698;-0.292;2023-04-16T08:40:09;14.40;;;8.90;;
78004;SDS011;67209;51.698;-0.292;2023-04-16T08:42:48;14.35;;;9.07;;
78004;SDS011;67209;51.698;-0.292;2023-04-16T08:45:16;12.32;;;8.20;;
78004;SDS011;67209;51.698;-0.292;2023-04-16T08:47:45;13.25;;;7.65;;
78004;SDS011;67209;51.698;-0.292;2023-04-16T08:50:15;10.98;;;7.40;;
78004;SDS011;67209;51.698;-0.292;2023-04-16T08:52:44;9.90;;;6.75;;
78004;SDS011;67209;51.698;-0.292;2023-04-16T08:55:11;12.35;;;7.40;;
78004;SDS011;67209;51.698;-0.292;2023-04-16T08:57:46;9.73;;;5.85;;
78004;SDS011;67209;51.698;-0.292;2023-04-16T09:00:13;8.77;;;5.78;;
78004;SDS011;67209;51.698;-0.292;2023-04-16T09:02:39;10.13;;;6.38;;
78004;SDS011;67209;51.698;-0.292;2023-04-16T09:05:05;9.40;;;6.40;;
78004;SDS011;67209;51.698;-0.292;2023-04-16T09:07:32;9.90;;;5.20;;
78004;SDS011;67209;51.698;-0.292;2023-04-16T09:09:59;8.15;;;3.90;;
78004;SDS011;67209;51.698;-0.292;2023-04-16T09:12:29;7.53;;;4.35;;
78004;SDS011;67209;51.698;-0.292;2023-04-16T09:14:55;6.88;;;3.97;;
78004;SDS011;67209;51.698;-0.292;2023-04-16T09:17:25;7.22;;;4.45;;
78004;SDS011;67209;51.698;-0.292;2023-04-16T09:19:51;6.75;;;4.80;;
78004;SDS011;67209;51.698;-0.292;2023-04-16T09:22:18;8.13;;;4.55;;
78004;SDS011;67209;51.698;-0.292;2023-04-16T09:24:44;6.65;;;3.95;;
78004;SDS011;67209;51.698;-0.292;2023-04-16T09:27:10;7.70;;;4.80;;
78004;SDS011;67209;51.698;-0.292;2023-04-16T09:29:37;8.25;;;5.45;;
78004;SDS011;67209;51.698;-0.292;2023-04-16T09:32:04;5.55;;;2.65;;
78004;SDS011;67209;51.698;-0.292;2023-04-16T09:34:31;4.50;;;2.67;;
78004;SDS011;67209;51.698;-0.292;2023-04-16T09:37:12;5.30;;;2.67;;
78004;SDS011;67209;51.698;-0.292;2023-04-16T09:39:40;5.97;;;3.30;;
78004;SDS011;67209;51.698;-0.292;2023-04-16T09:42:06;6.82;;;3.70;;
78004;SDS011;67209;51.698;-0.292;2023-04-16T09:44:35;8.15;;;4.38;;
78004;SDS011;67209;51.698;-0.292;2023-04-16T09:47:08;8.18;;;3.95;;
78004;SDS011;67209;51.698;-0.292;2023-04-16T09:49:34;5.10;;;3.70;;
78004;SDS011;67209;51.698;-0.292;2023-04-16T09:52:00;8.18;;;4.45;;
78004;SDS011;67209;51.698;-0.292;2023-04-16T09:54:26;5.38;;;3.72;;
78004;SDS011;67209;51.698;-0.292;2023-04-16T09:56:54;5.47;;;4.00;;
78004;SDS011;67209;51.698;-0.292;2023-04-16T09:59:21;7.28;;;3.80;;
78004;SDS011;67209;51.698;-0.292;2023-04-16T10:01:47;6.88;;;3.80;;
78004;SDS011;67209;51.698;-0.292;2023-04-16T10:04:14;6.60;;;3.70;;
78004;SDS011;67209;51.698;-0.292;2023-04-16T10:06:40;7.28;;;3.80;;
78004;SDS011;67209;51.698;-0.292;2023-04-16T10:09:07;5.03;;;3.50;;
78004;SDS011;67209;51.698;-0.292;2023-04-16T10:11:37;9.48;;;3.72;;
78004;SDS011;67209;51.698;-0.292;2023-04-16T10:14:13;5.03;;;3.33;;
78004;SDS011;67209;51.698;-0.292;2023-04-16T10:16:39;6.82;;;3.25;;
78004;SDS011;67209;51.698;-0.292;2023-04-16T10:19:05;4.80;;;2.95;;
78004;SDS011;67209;51.698;-0.292;2023-04-16T10:21:31;5.47;;;3.17;;
78004;SDS011;67209;51.698;-0.292;2023-04-16T10:23:57;21.65;;;4.63;;
78004;SDS011;67209;51.698;-0.292;2023-04-16T10:26:23;5.00;;;2.80;;
78004;SDS011;67209;51.698;-0.292;2023-04-16T10:28:50;4.03;;;2.80;;
78004;SDS011;67209;51.698;-0.292;2023-04-16T10:31:16;3.95;;;2.45;;
78004;SDS011;67209;51.698;-0.292;2023-04-16T10:33:42;4.28;;;3.35;;
78004;SDS011;67209;51.698;-0.292;2023-04-16T10:36:13;5.53;;;3.00;;
78004;SDS011;67209;51.698;-0.292;2023-04-16T10:38:49;5.35;;;3.10;;
78004;SDS011;67209;51.698;-0.292;2023-04-16T10:41:17;5.93;;;2.97;;
78004;SDS011;67209;51.698;-0.292;2023-04-16T10:43:48;5.00;;;3.15;;
78004;SDS011;67209;51.698;-0.292;2023-04-16T10:48:47;7.72;;;3.45;;
78004;SDS011;67209;51.698;-0.292;2023-04-16T10:51:24;6.68;;;3.30;;
78004;SDS011;67209;51.698;-0.292;2023-04-16T10:53:50;7.20;;;3.40;;
78004;SDS011;67209;51.698;-0.292;2023-04-16T10:56:26;6.32;;;3.10;;
78004;SDS011;67209;51.698;-0.292;2023-04-16T10:58:52;6.78;;;3.08;;
78004;SDS011;67209;51.698;-0.292;2023-04-16T11:01:31;5.60;;;3.35;;
78004;SDS011;67209;51.698;-0.292;2023-04-16T11:04:00;4.38;;;2.67;;
78004;SDS011;67209;51.698;-0.292;2023-04-16T11:06:27;4.53;;;2.80;;
78004;SDS011;67209;51.698;-0.292;2023-04-16T11:08:53;6.43;;;2.58;;
78004;SDS011;67209;51.698;-0.292;2023-04-16T11:11:19;5.30;;;2.42;;
78004;SDS011;67209;51.698;-0.292;2023-04-16T11:13:46;7.22;;;2.95;;
78004;SDS011;67209;51.698;-0.292;2023-04-16T11:16:12;4.15;;;2.50;;
78004;SDS011;67209;51.698;-0.292;2023-04-16T11:18:39;9.02;;;2.90;;
78004;SDS011;67209;51.698;-0.292;2023-04-16T11:21:09;5.32;;;2.65;;
78004;SDS011;67209;51.698;-0.292;2023-04-16T11:23:48;5.22;;;2.47;;
78004;SDS011;67209;51.698;-0.292;2023-04-16T11:26:24;4.68;;;1.98;;
78004;SDS011;67209;51.698;-0.292;2023-04-16T11:28:52;6.97;;;2.50;;
78004;SDS011;67209;51.698;-0.292;2023-04-16T11:31:18;3.08;;;1.70;;
78004;SDS011;67209;51.698;-0.292;2023-04-16T11:33:44;5.28;;;2.20;;
78004;SDS011;67209;51.698;-0.292;2023-04-16T11:36:11;4.60;;;2.70;;
78004;SDS011;67209;51.698;-0.292;2023-04-16T11:38:37;4.35;;;2.10;;
78004;SDS011;67209;51.698;-0.292;2023-04-16T11:41:05;4.97;;;2.03;;
78004;SDS011;67209;51.698;-0.292;2023-04-16T11:43:34;4.35;;;1.50;;
78004;SDS011;67209;51.698;-0.292;2023-04-16T11:46:01;5.88;;;2.10;;
78004;SDS011;67209;51.698;-0.292;2023-04-16T11:51:12;4.68;;;1.80;;
78004;SDS011;67209;51.698;-0.292;2023-04-16T11:53:48;5.93;;;2.42;;
78004;SDS011;67209;51.698;-0.292;2023-04-16T11:56:15;3.13;;;1.40;;
78004;SDS011;67209;51.698;-0.292;2023-04-16T11:59:10;3.40;;;1.58;;
78004;SDS011;67209;51.698;-0.292;2023-04-16T12:01:38;3.50;;;1.67;;
78004;SDS011;67209;51.698;-0.292;2023-04-16T12:04:04;4.35;;;1.80;;
78004;SDS011;67209;51.698;-0.292;2023-04-16T12:06:30;5.40;;;2.08;;
78004;SDS011;67209;51.698;-0.292;2023-04-16T12:08:57;4.85;;;1.90;;
78004;SDS011;67209;51.698;-0.292;2023-04-16T12:11:41;3.72;;;1.73;;
78004;SDS011;67209;51.698;-0.292;2023-04-16T12:14:08;5.80;;;1.77;;
78004;SDS011;67209;51.698;-0.292;2023-04-16T12:16:34;5.07;;;1.63;;
78004;SDS011;67209;51.698;-0.292;2023-04-16T12:19:01;4.30;;;1.67;;
78004;SDS011;67209;51.698;-0.292;2023-04-16T12:21:37;5.07;;;1.70;;
78004;SDS011;67209;51.698;-0.292;2023-04-16T12:24:04;5.22;;;1.95;;
78004;SDS011;67209;51.698;-0.292;2023-04-16T12:26:39;4.20;;;1.52;;
78004;SDS011;67209;51.698;-0.292;2023-04-16T12:29:13;4.55;;;1.77;;
78004;SDS011;67209;51.698;-0.292;2023-04-16T12:31:41;3.03;;;1.42;;
78004;SDS011;67209;51.698;-0.292;2023-04-16T12:34:07;4.55;;;1.42;;
78004;SDS011;67209;51.698;-0.292;2023-04-16T12:36:35;3.00;;;1.58;;
78004;SDS011;67209;51.698;-0.292;2023-04-16T12:39:01;3.67;;;1.48;;
78004;SDS011;67209;51.698;-0.292;2023-04-16T12:41:30;3.10;;;1.50;;
78004;SDS011;67209;51.698;-0.292;2023-04-16T12:44:05;1.85;;;1.10;;
78004;SDS011;67209;51.698;-0.292;2023-04-16T12:46:33;3.22;;;1.05;;
78004;SDS011;67209;51.698;-0.292;2023-04-16T12:48:59;4.10;;;1.63;;
78004;SDS011;67209;51.698;-0.292;2023-04-16T12:51:25;3.72;;;1.60;;
78004;SDS011;67209;51.698;-0.292;2023-04-16T12:53:52;3.17;;;1.60;;
78004;SDS011;67209;51.698;-0.292;2023-04-16T12:56:21;4.93;;;1.88;;
78004;SDS011;67209;51.698;-0.292;2023-04-16T12:58:47;4.93;;;1.92;;
78004;SDS011;67209;51.698;-0.292;2023-04-16T13:01:17;5.93;;;2.05;;
78004;SDS011;67209;51.698;-0.292;2023-04-16T13:03:43;5.32;;;2.30;;
78004;SDS011;67209;51.698;-0.292;2023-04-16T13:06:09;5.03;;;2.00;;
78004;SDS011;67209;51.698;-0.292;2023-04-16T13:08:35;4.55;;;2.17;;
78004;SDS011;67209;51.698;-0.292;2023-04-16T13:11:01;6.88;;;2.13;;
78004;SDS011;67209;51.698;-0.292;2023-04-16T13:13:27;5.13;;;2.03;;
78004;SDS011;67209;51.698;-0.292;2023-04-16T13:15:54;4.78;;;2.00;;
78004;SDS011;67209;51.698;-0.292;2023-04-16T13:18:20;3.78;;;1.80;;
78004;SDS011;67209;51.698;-0.292;2023-04-16T13:20:46;3.88;;;1.65;;
78004;SDS011;67209;51.698;-0.292;2023-04-16T13:23:13;3.53;;;1.48;;
78004;SDS011;67209;51.698;-0.292;2023-04-16T13:25:39;6.55;;;2.35;;
78004;SDS011;67209;51.698;-0.292;2023-04-16T13:28:05;6.65;;;2.08;;
78004;SDS011;67209;51.698;-0.292;2023-04-16T13:30:31;4.18;;;1.85;;
78004;SDS011;67209;51.698;-0.292;2023-04-16T13:32:57;2.20;;;1.23;;
78004;SDS011;67209;51.698;-0.292;2023-04-16T13:35:24;2.53;;;1.20;;
78004;SDS011;67209;51.698;-0.292;2023-04-16T13:37:51;4.50;;;1.63;;
78004;SDS011;67209;51.698;-0.292;2023-04-16T13:40:17;4.88;;;1.98;;
78004;SDS011;67209;51.698;-0.292;2023-04-16T13:42:43;5.10;;;1.80;;
78004;SDS011;67209;51.698;-0.292;2023-04-16T13:45:09;6.75;;;2.15;;
78004;SDS011;67209;51.698;-0.292;2023-04-16T13:47:37;9.07;;;2.65;;
78004;SDS011;67209;51.698;-0.292;2023-04-16T13:50:03;6.80;;;2.30;;
78004;SDS011;67209;51.698;-0.292;2023-04-16T13:52:29;9.35;;;2.05;;
78004;SDS011;67209;51.698;-0.292;2023-04-16T13:54:55;8.52;;;2.50;;
78004;SDS011;67209;51.698;-0.292;2023-04-16T13:57:21;6.38;;;2.00;;
78004;SDS011;67209;51.698;-0.292;2023-04-16T13:59:47;11.00;;;3.00;;
78004;SDS011;67209;51.698;-0.292;2023-04-16T14:02:13;7.85;;;2.22;;
78004;SDS011;67209;51.698;-0.292;2023-04-16T14:04:40;6.40;;;2.00;;
78004;SDS011;67209;51.698;-0.292;2023-04-16T14:07:06;6.20;;;1.80;;
78004;SDS011;67209;51.698;-0.292;2023-04-16T14:09:32;7.38;;;2.30;;
78004;SDS011;67209;51.698;-0.292;2023-04-16T14:11:58;4.70;;;1.80;;
78004;SDS011;67209;51.698;-0.292;2023-04-16T14:14:24;7.70;;;2.20;;
78004;SDS011;67209;51.698;-0.292;2023-04-16T14:16:52;8.73;;;2.47;;
78004;SDS011;67209;51.698;-0.292;2023-04-16T14:19:18;7.30;;;2.17;;
78004;SDS011;67209;51.698;-0.292;2023-04-16T14:21:45;4.32;;;1.60;;